Home > Products > Valid Products > TAF

000
FTUS41 KRNK 311139
TAFROA
TAF
KROA 311139Z 3112/0112 VRB03KT P6SM BKN050
     FM312200 VRB03KT 6SM -RA OVC040
     FM010200 09004KT 2SM RA BR OVC010=



000
FTUS41 KRNK 311139
TAFLYH
TAF
KLYH 311139Z 3112/0112 04003KT P6SM BKN050
     FM312300 09003KT 6SM -RA OVC040
     FM010300 00000KT 3SM -RA BR OVC015=



000
FTUS41 KRNK 311139
TAFBLF
TAF
KBLF 311139Z 3112/0112 18003KT P6SM BKN035
     FM311500 22007KT P6SM SCT030 OVC070
     FM311800 25006KT 6SM -RA OVC025
     FM312100 27004KT 4SM -RA BR OVC015
     FM010000 27003KT 2SM RA BR OVC007
     FM010300 28004KT 1SM RA BR OVC004
     FM010800 29006KT 1/2SM SN FG OVC002=



000
FTUS41 KRNK 311139
TAFLWB
TAF
KLWB 311139Z 3112/0112 VRB03KT P6SM BKN040
     FM311600 22003KT P6SM OVC035
     FM311900 24004KT 6SM -RA SCT030 OVC050
     FM312200 26003KT 4SM -RA BR OVC019
     FM010100 00000KT 2SM -RA BR OVC008=



000
FTUS41 KRNK 311139
TAFDAN
TAF
KDAN 311139Z 3112/0112 04005KT P6SM SCT050
     FM311900 09005KT P6SM BKN050
     FM010000 10003KT P6SM -RA OVC040
     FM010400 VRB03KT 4SM -RA BR OVC025=



000
FTUS41 KRNK 310540
TAFLYH
TAF
KLYH 310540Z 3106/0106 04003KT P6SM BKN060
     FM312300 09003KT 6SM -RA OVC050
     FM010300 00000KT 3SM -RA BR OVC015=



000
FTUS41 KRNK 310540
TAFDAN
TAF
KDAN 310540Z 3106/0106 04005KT P6SM SCT060
     FM311900 09005KT P6SM BKN060
     FM010000 10003KT P6SM -RA OVC050
     FM010400 VRB03KT 4SM -RA BR OVC025=



000
FTUS41 KRNK 310540
TAFROA
TAF
KROA 310540Z 3106/0106 VRB03KT P6SM BKN060
     FM312200 VRB03KT 6SM -RA OVC050
     FM010200 09004KT 2SM RA BR OVC010=



000
FTUS41 KRNK 310540
TAFBLF
TAF
KBLF 310540Z 3106/0106 18004KT P6SM SCT040 BKN120
     FM311500 22007KT P6SM OVC040
     FM311800 25006KT 6SM -RA OVC030
     FM312100 27004KT 4SM -RA BR OVC015
     FM010000 27003KT 2SM RA BR OVC007
     FM010300 28004KT 1SM RA BR OVC004=



000
FTUS41 KRNK 310540
TAFLWB
TAF
KLWB 310540Z 3106/0106 00000KT P6SM BKN040
     FM311600 22003KT P6SM OVC035
     FM311900 24004KT 6SM -RA SCT030 OVC050
     FM312200 26003KT 4SM -RA BR OVC019
     FM010100 00000KT 2SM -RA BR OVC008=



000
FTUS41 KRNK 302326
TAFDAN
TAF
KDAN 302326Z 3100/3124 02004KT P6SM SKC
     FM310600 04003KT P6SM SCT040
     FM311900 09005KT P6SM BKN050=



000
FTUS41 KRNK 302326
TAFLYH
TAF
KLYH 302326Z 3100/3124 04005KT P6SM FEW060
     FM310700 04005KT P6SM SCT040
     FM311900 09004KT P6SM OVC050=



000
FTUS41 KRNK 302326
TAFROA
TAF
KROA 302326Z 3100/3124 36005KT P6SM SKC
     FM310700 03003KT P6SM SCT035
     FM311800 VRB03KT P6SM OVC050=



000
FTUS41 KRNK 302326
TAFBLF
TAF
KBLF 302326Z 3100/3124 35003KT P6SM SKC
     FM310700 16003KT P6SM BKN025
     FM311600 22004KT P6SM OVC045
     FM312000 27005KT 5SM -SHRA OVC025=



000
FTUS41 KRNK 302326
TAFLWB
TAF
KLWB 302326Z 3100/3124 31003KT P6SM SKC
     FM310600 VRB03KT P6SM BKN030
     FM311300 13003KT P6SM BKN045
     FM312100 27003KT 5SM -SHRA OVC035=



000
FTUS41 KRNK 301923 AAA
TAFBLF
TAF AMD
KBLF 301923Z 3019/3118 34006KT P6SM SKC
     FM310700 VRB03KT P6SM OVC025
     FM311100 16003KT P6SM BKN080=



000
FTUS41 KRNK 301923 AAA
TAFLWB
TAF AMD
KLWB 301923Z 3019/3118 33006KT P6SM SCT035
     FM310600 VRB03KT P6SM BKN035
     FM311300 16003KT P6SM BKN080=



000
FTUS41 KRNK 301720
TAFDAN
TAF
KDAN 301720Z 3018/3118 01006KT P6SM SKC
     FM302300 02003KT P6SM SKC
     FM310700 04003KT P6SM OVC040=



000
FTUS41 KRNK 301720
TAFLWB
TAF
KLWB 301720Z 3018/3118 36006KT P6SM OVC030
     FM310500 VRB03KT P6SM SCT030
     FM311300 16003KT P6SM BKN080=



000
FTUS41 KRNK 301720
TAFROA
TAF
KROA 301720Z 3018/3118 32006KT P6SM SCT040
     FM302300 01003KT P6SM SKC
     FM310700 05003KT P6SM OVC035=



000
FTUS41 KRNK 301720
TAFLYH
TAF
KLYH 301720Z 3018/3118 36005KT P6SM SCT050
     FM310300 02005KT P6SM BKN040=



000
FTUS41 KRNK 301720
TAFBLF
TAF
KBLF 301720Z 3018/3118 34006KT P6SM OVC025
     FM310600 VRB03KT P6SM SCT025
     FM311100 16003KT P6SM BKN080=



000
FTUS41 KRNK 301139
TAFDAN
TAF
KDAN 301139Z 3012/3112 34003KT P6SM SCT080
     FM301800 02006KT P6SM SKC
     FM310000 05003KT P6SM SCT250=



000
FTUS41 KRNK 301139
TAFROA
TAF
KROA 301139Z 3012/3112 30006KT P6SM SCT050
     FM310000 VRB03KT P6SM SCT250=



000
FTUS41 KRNK 301139
TAFLWB
TAF
KLWB 301139Z 3012/3112 00000KT P6SM SCT050
      TEMPO 3012/3013 4SM BR SCT002
     FM301500 31003KT P6SM BKN050
     FM310000 00000KT P6SM BKN250=



000
FTUS41 KRNK 301139
TAFBLF
TAF
KBLF 301139Z 3012/3112 30006KT P6SM SCT040
      TEMPO 3014/3018 BKN040
     FM310000 VRB03KT P6SM SCT250
     FM310900 16004KT P6SM SCT100 OVC250=



000
FTUS41 KRNK 301139
TAFLYH
TAF
KLYH 301139Z 3012/3112 32003KT P6SM SCT050
     FM310000 03003KT P6SM SCT250=



000
FTUS41 KRNK 300540
TAFDAN
TAF
KDAN 300540Z 3006/3106 34003KT P6SM BKN070
     FM300900 36003KT P6SM SCT080
     FM301400 02006KT P6SM SKC
     FM310000 05003KT P6SM SCT250=



000
FTUS41 KRNK 300540
TAFLYH
TAF
KLYH 300540Z 3006/3106 31003KT P6SM SCT080
     FM301300 01003KT P6SM SCT040
     FM310000 00000KT P6SM SCT250=



000
FTUS41 KRNK 300540
TAFROA
TAF
KROA 300540Z 3006/3106 30006KT P6SM SCT050
     FM310000 VRB03KT P6SM SCT250=



000
FTUS41 KRNK 300540
TAFLWB
TAF
KLWB 300540Z 3006/3106 00000KT P6SM SCT060
      TEMPO 3010/3012 1SM BR SCT002
     FM301300 31003KT P6SM SCT030
     FM310000 00000KT P6SM SCT250=



000
FTUS41 KRNK 300540
TAFBLF
TAF
KBLF 300540Z 3006/3106 30007KT P6SM FEW040
      TEMPO 3009/3013 3SM BR SCT004
     FM301300 32004KT P6SM SCT025
     FM310000 VRB03KT P6SM SCT250=



000
FTUS41 KRNK 300204 AAA
TAFDAN
TAF AMD
KDAN 300204Z 3002/3024 32004KT P6SM BKN060
      TEMPO 3002/3003 3SM SHRA BR OVC030
     FM300600 34003KT P6SM SKC=



000
FTUS41 KRNK 292320
TAFDAN
TAF
KDAN 292320Z 3000/3024 33005KT P6SM OVC090
     FM300600 34003KT P6SM SKC=



000
FTUS41 KRNK 292320
TAFROA
TAF
KROA 292320Z 3000/3024 30006KT P6SM FEW060
     FM301500 31006KT P6SM SCT040=



000
FTUS41 KRNK 292320
TAFBLF
TAF
KBLF 292320Z 3000/3024 30006KT P6SM FEW040
      TEMPO 3009/3011 3SM BR
     FM301200 32004KT P6SM SCT025=



000
FTUS41 KRNK 292320
TAFLYH
TAF
KLYH 292320Z 3000/3024 26003KT P6SM OVC100
     FM300300 31003KT P6SM SKC
     FM301500 01003KT P6SM SCT040=



000
FTUS41 KRNK 292320
TAFLWB
TAF
KLWB 292320Z 3000/3024 00000KT P6SM SKC
      TEMPO 3010/3012 2SM BR
     FM301300 31003KT P6SM SCT035=



000
FTUS41 KRNK 291903 AAA
TAFLYH
TAF AMD
KLYH 291903Z 2919/3018 25006KT P6SM OVC035
     FM292000 30008G18KT P6SM SCT035 BKN060
     FM300000 27005KT P6SM BKN100
     FM300300 31003KT P6SM SKC
     FM301500 35003KT P6SM SCT040=



000
FTUS41 KRNK 291735
TAFDAN
TAF
KDAN 291735Z 2918/3018 23006KT P6SM OVC035
     FM292100 31009KT P6SM BKN060
     FM300100 34005KT P6SM BKN100
     FM300300 34003KT P6SM SKC
     FM301500 35003KT P6SM SCT040=



000
FTUS41 KRNK 291735
TAFLYH
TAF
KLYH 291735Z 2918/3018 23006KT P6SM -SHRA OVC035
     FM291900 30008G18KT P6SM SCT035 BKN060
     FM300000 27005KT P6SM BKN100
     FM300300 31003KT P6SM SKC
     FM301500 35003KT P6SM SCT040=



000
FTUS41 KRNK 291735
TAFLWB
TAF
KLWB 291735Z 2918/3018 29006KT P6SM BKN080
     FM292300 30002KT P6SM BKN025
     FM301200 31003KT P6SM OVC035=



000
FTUS41 KRNK 291735
TAFROA
TAF
KROA 291735Z 2918/3018 28007KT P6SM SCT040 OVC080
     FM292000 30008KT P6SM SCT100
     FM300600 31005KT P6SM SKC
     FM301500 31006KT P6SM OVC040=



000
FTUS41 KRNK 291735
TAFBLF
TAF
KBLF 291735Z 2918/3018 29008KT P6SM BKN035 BKN080
     FM292300 30005KT P6SM BKN015
     FM301200 30004KT P6SM OVC025=



000
FTUS41 KRNK 291651 AAC
TAFBLF
TAF AMD
KBLF 291651Z 2917/3012 29007KT P6SM SCT007 OVC030
     FM291800 29011KT P6SM BKN025 BKN100
     FM292100 29007KT P6SM SCT025=



000
FTUS41 KRNK 291533 AAC
TAFLWB
TAF AMD
KLWB 291533Z 2916/3012 26008KT P6SM -RA SCT020 OVC030
     FM291700 30010KT P6SM BKN025
     FM292100 30005KT P6SM SCT030
     FM300900 00000KT 1/2SM FG SCT002=



000
FTUS41 KRNK 291533 AAA
TAFLYH
TAF AMD
KLYH 291533Z 2916/3012 27010G18KT P6SM SCT035 OVC050
      TEMPO 2917/2919 6SM -SHRA OVC035
     FM292200 27008G16KT P6SM SCT100
     FM300300 29003KT P6SM SKC=



000
FTUS41 KRNK 291532 AAB
TAFLWB
TAF AMD
KLWB 291532Z 2916/3012 26008KT P6SM SCT020 OVC030
     FM291700 30010KT P6SM -RA BKN025
     FM292100 30005KT P6SM SCT030
     FM300900 00000KT 1/2SM FG SCT002=



000
FTUS41 KRNK 291531 AAB
TAFBLF
TAF AMD
KBLF 291531Z 2916/3012 29007KT 6SM -RA BKN007 OVC030
     FM291800 29011KT P6SM BKN025 BKN100
     FM292100 29007KT P6SM SCT025=



000
FTUS41 KRNK 291406 AAB
TAFROA
TAF AMD
KROA 291406Z 2914/3012 31012G20KT P6SM OVC035
     FM291530 27009KT P6SM -SHRA SCT030 OVC070
      TEMPO 2917/2919 6SM -SHRA OVC030
     FM292000 29010G18KT P6SM SCT100
     FM300600 29005KT P6SM SKC=



000
FTUS41 KRNK 291405 AAA
TAFBLF
TAF AMD
KBLF 291405Z 2914/3012 26007KT 6SM -RA SCT005 OVC030
     FM291600 29009G18KT P6SM -RA BKN040 OVC090
     FM291800 29011KT P6SM BKN025 BKN100
     FM292100 29007KT P6SM SCT025=



000
FTUS41 KRNK 291404 AAA
TAFROA
TAF AMD
KROA 291404Z 2914/3012 31012G20KT P6SM OVC035
     FM291700 27009KT P6SM -SHRA SCT030 OVC070
      TEMPO 2917/2919 6SM -SHRA OVC030
     FM292000 29010G18KT P6SM SCT100
     FM300600 29005KT P6SM SKC=



000
FTUS41 KRNK 291403 AAA
TAFLWB
TAF AMD
KLWB 291403Z 2914/3012 24006KT 6SM -SHRA SCT020 OVC050
      TEMPO 2914/2916 3SM -SHRA BR OVC018
     FM291600 28008G16KT P6SM -RA BKN020 OVC030
     FM291800 30010KT P6SM BKN025
     FM292100 30005KT P6SM SCT030
     FM300900 00000KT 1/2SM FG SCT002=



000
FTUS41 KRNK 291139
TAFDAN
TAF
KDAN 291139Z 2912/3012 22006KT P6SM OVC250
     FM291600 23007KT P6SM BKN120 OVC250
     FM292100 26008G16KT P6SM -SHRA SCT040 OVC090
     FM300100 32006KT P6SM SCT090 BKN250
     FM300900 35004KT P6SM SCT250=



000
FTUS41 KRNK 291139
TAFLYH
TAF
KLYH 291139Z 2912/3012 22005KT P6SM SCT100 OVC250
     FM291600 25006KT P6SM -SHRA SCT035 OVC070
      TEMPO 2917/2921 6SM -SHRA OVC035
     FM292200 27008G16KT P6SM SCT100
     FM300300 29003KT P6SM SKC=



000
FTUS41 KRNK 291139
TAFBLF
TAF
KBLF 291139Z 2912/3012 28007KT 6SM -RA OVC003
      TEMPO 2912/2914 3SM RA BR SCT003 OVC007
     FM291500 29009G18KT P6SM -RA SCT007 BKN020 OVC090
     FM291800 29011KT P6SM BKN025 BKN100
     FM292100 29007KT P6SM SCT025=



000
FTUS41 KRNK 291139
TAFROA
TAF
KROA 291139Z 2912/3012 VRB03KT P6SM SCT100 OVC250
     FM291400 26007KT P6SM -SHRA SCT030 OVC070
      TEMPO 2915/2918 6SM -SHRA OVC030
     FM292000 29010G18KT P6SM SCT100
     FM300600 29005KT P6SM SKC=



000
FTUS41 KRNK 291139
TAFLWB
TAF
KLWB 291139Z 2912/3012 24006KT 6SM -SHRA BKN020 OVC050
      TEMPO 2912/2915 3SM -SHRA BR OVC012
     FM291600 28008G16KT P6SM -RA BKN020 OVC030
     FM291800 30010KT P6SM BKN025
     FM292100 30005KT P6SM SCT030
     FM300900 00000KT 1/2SM FG SCT002=



000
FTUS41 KRNK 291018 AAC
TAFBLF
TAF AMD
KBLF 291018Z 2910/3006 30007KT P6SM -SHRA SCT004 OVC014
      TEMPO 2910/2914 5SM -SHRA BR OVC004
     FM291500 29009G18KT P6SM -RA BKN020 OVC090
     FM291800 29011KT P6SM BKN025 BKN100
     FM292100 29007KT P6SM SCT025=



000
FTUS41 KRNK 290903 AAB
TAFBLF
TAF AMD
KBLF 290903Z 2909/3006 31007KT P6SM -SHRA SCT007 OVC015
      TEMPO 2909/2913 5SM -SHRA BR OVC007
     FM291500 29009G18KT P6SM -RA BKN020 OVC090
     FM291800 29011KT P6SM BKN025 BKN100
     FM292100 29007KT P6SM SCT025=



000
FTUS41 KRNK 290747 AAA
TAFBLF
TAF AMD
KBLF 290747Z 2908/3006 28005KT P6SM BKN026 OVC040
     FM291000 25008G16KT P6SM -SHRA BKN015 OVC035
      TEMPO 2911/2915 5SM -SHRA BR BKN009 OVC015
     FM291500 29009G18KT P6SM -RA BKN020 OVC090
     FM291800 29011KT P6SM BKN025 BKN100
     FM292100 29007KT P6SM SCT025=



000
FTUS41 KRNK 290540
TAFDAN
TAF
KDAN 290540Z 2906/3006 22006KT P6SM OVC250
     FM291600 23007KT P6SM BKN120 OVC250
     FM292100 26008G16KT P6SM -SHRA SCT050 OVC100
     FM300100 32006KT P6SM SCT100=



000
FTUS41 KRNK 290540
TAFLWB
TAF
KLWB 290540Z 2906/3006 21004KT P6SM SCT080 OVC150
     FM290900 24006KT P6SM -SHRA BKN050 OVC080
      TEMPO 2910/2914 3SM -SHRA BR BKN030 OVC050
     FM291400 28008G16KT P6SM -RA BKN020 OVC030
     FM291800 30010KT P6SM BKN025
     FM292100 30005KT P6SM SCT030=



000
FTUS41 KRNK 290540
TAFLYH
TAF
KLYH 290540Z 2906/3006 22005KT P6SM SCT110 OVC250
     FM291600 25006KT P6SM -SHRA SCT050 OVC100
     FM292200 27008G16KT P6SM SCT100=



000
FTUS41 KRNK 290540
TAFROA
TAF
KROA 290540Z 2906/3006 VRB03KT P6SM SCT100 OVC250
     FM291400 26007KT P6SM -SHRA SCT045 OVC100
     FM292000 29010G18KT P6SM SCT100=



000
FTUS41 KRNK 290540
TAFBLF
TAF
KBLF 290540Z 2906/3006 27008KT P6SM SCT070 OVC120
     FM291000 25008G16KT P6SM -SHRA BKN050 OVC080
      TEMPO 2911/2915 5SM -SHRA BR SCT015 BKN025 OVC050
     FM291500 29009G18KT P6SM -RA BKN015 OVC025
     FM291800 29011KT P6SM BKN023 BKN100
     FM292100 29007KT P6SM SCT025=



000
FTUS41 KRNK 290352 AAA
TAFBLF
TAF AMD
KBLF 290352Z 2904/2924 25006KT P6SM SCT070 OVC250
     FM290600 25008G16KT P6SM -SHRA BKN050 OVC080
      TEMPO 2909/2913 5SM -SHRA BR SCT015 BKN025 OVC050
     FM291400 29015G25KT P6SM -RA BKN015 OVC025
     FM291700 29015G25KT P6SM BKN023=



000
FTUS41 KRNK 282342
TAFBLF
TAF
KBLF 282342Z 2900/2924 23007KT P6SM SCT080 OVC250
     FM290400 25008G16KT P6SM -SHRA BKN050 OVC080
      TEMPO 2908/2912 5SM -SHRA BR BKN025 OVC050
     FM291300 29015G25KT P6SM -RA BKN015 OVC025
     FM291700 29015G25KT P6SM BKN023=



000
FTUS41 KRNK 282342
TAFROA
TAF
KROA 282342Z 2900/2924 22006KT P6SM OVC250
     FM290600 23006KT P6SM SCT100 OVC250
     FM291200 26007KT P6SM -SHRA SCT045 BKN100 OVC250
     FM291900 29015G25KT P6SM SCT040=



000
FTUS41 KRNK 282342
TAFLYH
TAF
KLYH 282342Z 2900/2924 20005KT P6SM OVC250
     FM290800 22005KT P6SM SCT110 OVC250
     FM291400 25006KT P6SM -SHRA SCT050 BKN110 OVC250
     FM292000 27008G16KT P6SM SCT045=



000
FTUS41 KRNK 282342
TAFLWB
TAF
KLWB 282342Z 2900/2924 23004KT P6SM SCT080 OVC250
     FM290500 24006KT P6SM -SHRA BKN050 OVC080
      TEMPO 2908/2912 3SM -SHRA BR BKN027 OVC050
     FM291300 28008G16KT P6SM -RA BKN020 OVC030
     FM291800 29010G20KT P6SM BKN025=



000
FTUS41 KRNK 282342
TAFDAN
TAF
KDAN 282342Z 2900/2924 22006KT P6SM OVC250
     FM291200 23007KT P6SM BKN120 OVC250
     FM291700 26008G16KT P6SM -SHRA SCT050 BKN100 OVC250=



000
FTUS41 KRNK 282200 AAA
TAFLYH
TAF AMD
KLYH 282200Z 2822/2918 21004KT P6SM SCT100 OVC250
     FM291500 26007KT P6SM SCT050 OVC100=



000
FTUS41 KRNK 282200 AAA
TAFROA
TAF AMD
KROA 282200Z 2822/2918 20005KT P6SM FEW100 BKN250
     FM291000 27007KT P6SM -SHRA SCT030 OVC100
     FM291300 29004KT 5SM -RA BKN035 OVC100=



000
FTUS41 KRNK 282159 AAA
TAFDAN
TAF AMD
KDAN 282159Z 2822/2918 21004KT P6SM FEW100 BKN250
     FM291500 26008KT P6SM BKN100=



000
FTUS41 KRNK 282157 AAB
TAFLWB
TAF AMD
KLWB 282157Z 2822/2918 23004KT P6SM SCT100 BKN250
     FM290400 24004KT P6SM VCSH SCT040 BKN250
     FM290700 24006KT P6SM -SHRA SCT035 OVC100
     FM291000 28007KT 4SM -SHRA SCT012 OVC035
     FM291100 30005KT 1/4SM -RA FG SCT006 OVC012
     FM291400 29008KT P6SM OVC025=



000
FTUS41 KRNK 282157 AAB
TAFBLF
TAF AMD
KBLF 282157Z 2822/2918 24008KT P6SM SCT100 BKN250
     FM290300 23006KT P6SM VCSH SCT050 BKN250
     FM290600 25006KT P6SM -SHRA SCT030 OVC100
     FM290900 29008KT 4SM -SHRA SCT012 OVC030
     FM291300 30007KT P6SM OVC025=



000
FTUS41 KRNK 281951 AAA
TAFLWB
TAF AMD
KLWB 281951Z 2820/2918 23010G20KT P6SM SCT100 BKN250
     FM290000 24007G14KT P6SM VCSH SCT040 BKN250
     FM290700 24006KT P6SM -SHRA SCT035 OVC100
     FM291000 28007KT 4SM -SHRA SCT012 OVC035
     FM291100 30005KT 1/4SM -RA FG SCT006 OVC012
     FM291400 29008KT P6SM OVC025=



000
FTUS41 KRNK 281857 AAA
TAFBLF
TAF AMD
KBLF 281857Z 2819/2918 26012G25KT P6SM SCT100 BKN250
     FM290000 22008G16KT P6SM VCSH SCT050 BKN250
     FM290600 25006KT P6SM -SHRA SCT030 OVC100
     FM290900 29008KT 4SM -SHRA SCT012 OVC030
     FM291300 30007KT P6SM OVC025=



000
FTUS41 KRNK 281803 CCA
TAFLYH
TAF COR
KLYH 281803Z 2818/2918 21008G18KT P6SM BKN250
     FM290200 23006KT P6SM SCT100 OVC250
     FM291500 23003KT P6SM SCT050 OVC100=



000
FTUS41 KRNK 281731
TAFBLF
TAF
KBLF 281731Z 2818/2918 23009G18KT P6SM BKN250
     FM290000 22008KT P6SM SCT100 BKN250
     FM290600 25006KT P6SM -SHRA SCT030 OVC100
     FM290900 29008KT 4SM -SHRA SCT012 OVC030
     FM291300 28007KT P6SM OVC025=



000
FTUS41 KRNK 281731
TAFDAN
TAF
KDAN 281731Z 2818/2918 22009G18KT P6SM SCT250
     FM290000 22008KT P6SM BKN250
     FM290600 22004KT P6SM SCT100 OVC250
     FM291500 26008KT P6SM BKN100=



000
FTUS41 KRNK 281731
TAFLWB
TAF
KLWB 281731Z 2818/2918 23007KT P6SM BKN250
     FM290000 24003KT P6SM SCT100 BKN250
     FM290700 24006KT P6SM -SHRA SCT035 OVC100
     FM291000 28007KT 4SM -SHRA SCT012 OVC035
     FM291100 30005KT 1/4SM -RA FG SCT006 OVC012
     FM291400 29008KT P6SM OVC025=



000
FTUS41 KRNK 281731
TAFROA
TAF
KROA 281731Z 2818/2918 19010KT P6SM SCT250
     FM290000 20006KT P6SM BKN250
     FM291000 27007KT P6SM -SHRA SCT030 OVC100
     FM291300 29004KT 5SM -RA BKN035 OVC100=



000
FTUS41 KRNK 281731
TAFLYH
TAF
KLYH 281731Z 2818/2918 21008KT P6SM BKN250
     FM290200 23006KT P6SM SCT100 OVC250
     FM291500 23003KT P6SM SCT050 OVC100=



000
FTUS41 KRNK 281306 AAB
TAFLWB
TAF AMD
KLWB 281306Z 2813/2912 00000KT P6SM SCT250
     FM281600 23007KT P6SM BKN250
     FM290000 24003KT P6SM SCT100 BKN250
     FM290700 24006KT P6SM -SHRA SCT035 OVC100
     FM291000 29008KT 4SM -SHRA SCT012 OVC035=



000
FTUS41 KRNK 281230 AAA
TAFLWB
TAF AMD
KLWB 281230Z 2813/2912 00000KT 1/2SM FG VV005
      TEMPO 2813/2814 1SM BR BKN002
     FM281600 23007KT P6SM BKN250
     FM290000 24003KT P6SM SCT100 BKN250
     FM290700 24006KT P6SM -SHRA SCT035 OVC100
     FM291000 29008KT 4SM -SHRA SCT012 OVC035=



    US Dept of Commerce
    National Oceanic and Atmospheric Administration
    National Weather Service
    1325 East West Highway
    Silver Spring, MD 20910
    Page Author: NWS Internet Services Team
Disclaimer
Information Quality
Credits
Glossary
Privacy Policy
Freedom of Information Act (FOIA)
About Us
Career Opportunities